createdAt,value
2018-12-15T00:00:31.140Z,18.40
2018-12-15T00:02:59.435Z,17.93
2018-12-15T00:05:27.605Z,20.17
2018-12-15T00:07:55.942Z,20.57
2018-12-15T00:10:24.328Z,21.10
2018-12-15T00:12:52.516Z,19.50
2018-12-15T00:15:20.696Z,21.23
2018-12-15T00:17:48.967Z,20.57
2018-12-15T00:20:17.144Z,20.17
2018-12-15T00:22:45.333Z,21.33
2018-12-15T00:25:13.512Z,19.43
2018-12-15T00:27:41.704Z,20.53
2018-12-15T00:30:09.892Z,19.20
2018-12-15T00:32:38.076Z,17.30
2018-12-15T00:35:06.435Z,19.00
2018-12-15T00:37:34.624Z,21.33
2018-12-15T00:40:02.946Z,17.60
2018-12-15T00:42:31.521Z,16.63
2018-12-15T00:44:59.725Z,19.03
2018-12-15T00:47:28.291Z,20.10
2018-12-15T00:49:56.564Z,21.60
2018-12-15T00:52:24.744Z,20.03
2018-12-15T00:54:53.074Z,18.20
2018-12-15T00:57:21.247Z,17.93
2018-12-15T00:59:49.424Z,19.57
2018-12-15T01:02:17.617Z,20.73
2018-12-15T01:04:45.792Z,16.23
2018-12-15T01:07:14.148Z,17.97
2018-12-15T01:09:42.329Z,17.83
2018-12-15T01:12:10.825Z,19.37
2018-12-15T01:14:39.309Z,17.23
2018-12-15T01:17:07.507Z,19.20
2018-12-15T01:19:35.681Z,19.53
2018-12-15T01:22:03.844Z,20.07
2018-12-15T01:24:32.015Z,17.27
2018-12-15T01:27:00.443Z,21.37
2018-12-15T01:29:28.608Z,21.10
2018-12-15T01:31:56.772Z,21.63
2018-12-15T01:34:25.032Z,19.50
2018-12-15T01:36:53.189Z,20.30
2018-12-15T01:39:21.365Z,20.50
2018-12-15T01:41:49.520Z,21.13
2018-12-15T01:44:17.771Z,17.20
2018-12-15T01:46:45.937Z,19.23
2018-12-15T01:49:14.197Z,18.00
2018-12-15T01:51:42.397Z,21.43
2018-12-15T01:54:10.756Z,21.10
2018-12-15T01:56:38.924Z,20.57
2018-12-15T01:59:07.084Z,19.47
2018-12-15T02:01:35.248Z,22.87
2018-12-15T02:04:03.416Z,19.90
2018-12-15T02:06:31.806Z,21.77
2018-12-15T02:08:59.997Z,21.77
2018-12-15T02:11:28.412Z,19.60
2018-12-15T02:13:56.623Z,20.43
2018-12-15T02:16:25.164Z,19.47
2018-12-15T02:18:53.748Z,17.73
2018-12-15T02:21:21.908Z,21.40
2018-12-15T02:23:50.080Z,23.23
2018-12-15T02:26:18.240Z,22.83
2018-12-15T02:28:46.543Z,20.00
2018-12-15T02:31:14.729Z,22.20
2018-12-15T02:33:42.997Z,23.37
2018-12-15T02:36:11.244Z,20.67
2018-12-15T02:38:39.429Z,22.60
2018-12-15T02:41:07.587Z,24.10
2018-12-15T02:43:35.768Z,20.83
2018-12-15T02:46:03.933Z,23.17
2018-12-15T02:48:32.110Z,21.57
2018-12-15T02:51:00.351Z,24.07
2018-12-15T02:53:28.520Z,21.03
2018-12-15T02:55:56.686Z,22.87
2018-12-15T02:58:24.859Z,22.57
2018-12-15T03:00:53.031Z,30.70
2018-12-15T03:03:21.290Z,23.57
2018-12-15T03:05:49.465Z,22.43
2018-12-15T03:08:17.665Z,25.17
2018-12-15T03:10:45.850Z,24.97
2018-12-15T03:13:14.585Z,24.70
2018-12-15T03:15:42.759Z,24.27
2018-12-15T03:18:10.948Z,26.97
2018-12-15T03:20:39.134Z,24.73
2018-12-15T03:23:07.317Z,25.70
2018-12-15T03:25:35.505Z,24.73
2018-12-15T03:28:03.704Z,24.30
2018-12-15T03:30:31.898Z,22.77
2018-12-15T03:33:00.155Z,21.00
2018-12-15T03:35:28.363Z,21.57
2018-12-15T03:37:56.542Z,23.80
2018-12-15T03:40:24.724Z,24.43
2018-12-15T03:42:52.897Z,24.27
2018-12-15T03:45:21.117Z,22.13
2018-12-15T03:47:55.929Z,30.50
2018-12-15T03:50:19.496Z,26.70
2018-12-15T03:52:47.703Z,27.27
2018-12-15T03:55:15.993Z,23.23
2018-12-15T03:57:44.172Z,24.70
2018-12-15T04:00:12.357Z,26.00
2018-12-15T04:02:40.529Z,25.23
2018-12-15T04:05:08.717Z,27.90
2018-12-15T04:07:36.888Z,24.80
2018-12-15T04:10:05.517Z,23.43
2018-12-15T04:12:33.705Z,26.77
2018-12-15T04:15:01.893Z,28.73
2018-12-15T04:17:30.070Z,25.73
2018-12-15T04:19:58.358Z,26.00
2018-12-15T04:22:26.562Z,24.40
2018-12-15T04:24:54.874Z,28.17
2018-12-15T04:27:23.069Z,26.17
2018-12-15T04:29:51.252Z,27.93
2018-12-15T04:32:19.435Z,26.57
2018-12-15T04:34:48.064Z,28.00
2018-12-15T04:37:16.243Z,26.40
2018-12-15T04:39:44.724Z,22.87
2018-12-15T04:42:12.896Z,25.40
2018-12-15T04:44:41.082Z,29.43
2018-12-15T04:47:09.332Z,26.27
2018-12-15T04:49:37.516Z,30.13
2018-12-15T04:52:05.788Z,28.90
2018-12-15T04:54:33.976Z,27.30
2018-12-15T04:57:02.244Z,36.63
2018-12-15T04:59:30.449Z,30.73
2018-12-15T05:01:58.658Z,23.07
2018-12-15T05:04:26.848Z,28.50
2018-12-15T05:06:55.028Z,26.33
2018-12-15T05:09:23.236Z,25.60
2018-12-15T05:11:51.424Z,26.90
2018-12-15T05:14:19.604Z,27.43
2018-12-15T05:16:47.769Z,27.53
2018-12-15T05:19:15.940Z,25.87
2018-12-15T05:21:44.101Z,29.63
2018-12-15T05:24:12.276Z,26.30
2018-12-15T05:26:40.618Z,27.33
2018-12-15T05:29:08.822Z,29.47
2018-12-15T05:31:37.037Z,28.70
2018-12-15T05:34:05.312Z,27.07
2018-12-15T05:36:33.487Z,28.03
2018-12-15T05:39:01.779Z,24.23
2018-12-15T05:41:29.995Z,28.60
2018-12-15T05:43:58.210Z,31.30
2018-12-15T05:46:26.410Z,30.27
2018-12-15T05:48:54.604Z,27.80
2018-12-15T05:51:23.063Z,25.00
2018-12-15T05:53:51.235Z,28.00
2018-12-15T05:56:19.432Z,28.67
2018-12-15T05:58:47.609Z,26.60
2018-12-15T06:01:16.017Z,32.07
2018-12-15T06:03:44.188Z,29.97
2018-12-15T06:06:12.368Z,24.80
2018-12-15T06:08:40.553Z,28.47
2018-12-15T06:11:08.824Z,32.70
2018-12-15T06:13:37.096Z,30.50
2018-12-15T06:16:05.368Z,32.87
2018-12-15T06:18:33.576Z,30.33
2018-12-15T06:21:01.773Z,30.53
2018-12-15T06:23:29.961Z,26.90
2018-12-15T06:25:58.495Z,31.37
2018-12-15T06:28:26.669Z,32.90
2018-12-15T06:30:54.856Z,29.67
2018-12-15T06:33:23.290Z,34.37
2018-12-15T06:35:51.468Z,30.87
2018-12-15T06:38:19.648Z,29.27
2018-12-15T06:40:47.832Z,30.40
2018-12-15T06:43:16.380Z,26.00
2018-12-15T06:45:45.263Z,42.17
2018-12-15T06:48:13.716Z,30.37
2018-12-15T06:50:41.900Z,29.57
2018-12-15T06:53:10.072Z,19.83
2018-12-15T06:55:38.290Z,22.13
2018-12-15T06:58:06.562Z,18.63
2018-12-15T07:00:34.787Z,19.73
2018-12-15T07:03:03.054Z,19.40
2018-12-15T07:05:31.232Z,19.93
2018-12-15T07:07:59.412Z,19.97
2018-12-15T07:10:27.592Z,18.23
2018-12-15T07:12:55.760Z,20.40
2018-12-15T07:15:23.952Z,17.97
2018-12-15T07:17:52.200Z,18.80
2018-12-15T07:20:20.456Z,18.37
2018-12-15T07:22:48.732Z,17.87
2018-12-15T07:25:16.984Z,17.30
2018-12-15T07:27:45.147Z,16.23
2018-12-15T07:30:13.641Z,17.87
2018-12-15T07:32:41.814Z,16.27
2018-12-15T07:35:10.027Z,19.87
2018-12-15T07:37:38.211Z,15.87
2018-12-15T07:40:06.561Z,15.73
2018-12-15T07:42:34.734Z,13.07
2018-12-15T07:45:03.087Z,14.07
2018-12-15T07:47:31.255Z,12.90
2018-12-15T07:49:59.420Z,14.33
2018-12-15T07:52:27.593Z,13.57
2018-12-15T07:54:56.292Z,18.07
2018-12-15T07:57:24.464Z,12.50
2018-12-15T07:59:52.624Z,21.17
2018-12-15T08:02:20.876Z,13.57
2018-12-15T08:04:49.127Z,14.20
2018-12-15T08:07:17.300Z,16.10
2018-12-15T08:09:47.188Z,15.73
2018-12-15T08:12:20.893Z,15.07
2018-12-15T08:14:49.257Z,14.00
2018-12-15T08:17:17.444Z,13.50
2018-12-15T08:19:45.622Z,17.70
2018-12-15T08:22:13.856Z,15.63
2018-12-15T08:24:42.036Z,16.67
2018-12-15T08:27:10.204Z,14.97
2018-12-15T08:29:38.474Z,17.17
2018-12-15T08:32:06.757Z,16.07
2018-12-15T08:34:34.931Z,11.07
2018-12-15T08:37:03.120Z,15.10
2018-12-15T08:39:31.904Z,25.10
2018-12-15T08:42:00.116Z,11.90
2018-12-15T08:44:28.292Z,13.77
2018-12-15T08:46:56.514Z,13.27
2018-12-15T08:49:24.705Z,13.50
2018-12-15T08:51:52.891Z,17.17
2018-12-15T08:54:21.059Z,15.50
2018-12-15T08:56:49.257Z,15.53
2018-12-15T08:59:17.532Z,24.27
2018-12-15T09:01:45.719Z,18.27
2018-12-15T09:04:13.900Z,15.77
2018-12-15T09:06:42.168Z,16.50
2018-12-15T09:09:10.344Z,17.77
2018-12-15T09:11:38.621Z,17.23
2018-12-15T09:14:06.793Z,15.97
2018-12-15T09:16:34.983Z,14.23
2018-12-15T09:19:03.888Z,19.50
2018-12-15T09:21:32.066Z,20.77
2018-12-15T09:24:00.320Z,14.77
2018-12-15T09:26:28.538Z,20.40
2018-12-15T09:28:56.729Z,20.43
2018-12-15T09:31:24.933Z,20.77
2018-12-15T09:33:53.087Z,17.03
2018-12-15T09:36:21.268Z,15.23
2018-12-15T09:38:49.434Z,18.60
2018-12-15T09:41:17.777Z,21.30
2018-12-15T09:43:46.140Z,20.77
2018-12-15T09:46:14.316Z,24.33
2018-12-15T09:48:42.499Z,20.20
2018-12-15T09:51:10.690Z,15.80
2018-12-15T09:53:39.052Z,21.50
2018-12-15T09:56:07.235Z,21.60
2018-12-15T09:58:35.609Z,19.50
2018-12-15T10:01:03.956Z,24.60
2018-12-15T10:03:32.114Z,17.50
2018-12-15T10:06:01.084Z,18.97
2018-12-15T10:08:29.372Z,28.43
2018-12-15T10:10:57.694Z,22.33
2018-12-15T10:13:25.872Z,20.27
2018-12-15T10:15:54.141Z,23.40
2018-12-15T10:18:22.352Z,14.90
2018-12-15T10:20:51.161Z,23.50
2018-12-15T10:23:19.364Z,21.40
2018-12-15T10:25:47.860Z,24.00
2018-12-15T10:28:16.063Z,17.07
2018-12-15T10:30:49.849Z,17.97
2018-12-15T10:33:18.203Z,19.93
2018-12-15T10:35:46.608Z,18.33
2018-12-15T10:38:15.028Z,19.77
2018-12-15T10:40:43.473Z,17.47
2018-12-15T10:43:11.657Z,14.90
2018-12-15T10:45:39.833Z,17.70
2018-12-15T10:48:08.051Z,17.37
2018-12-15T10:50:36.223Z,15.37
2018-12-15T10:53:04.508Z,16.97
2018-12-15T10:55:32.684Z,21.73
2018-12-15T10:58:00.870Z,17.73
2018-12-15T11:00:34.601Z,17.33
2018-12-15T11:03:02.788Z,16.00
2018-12-15T11:05:31.212Z,18.63
2018-12-15T11:07:59.425Z,15.70
2018-12-15T11:10:27.688Z,16.03
2018-12-15T11:12:55.876Z,16.90
2018-12-15T11:15:24.092Z,16.80
2018-12-15T11:17:52.272Z,19.67
2018-12-15T11:20:20.549Z,17.87
2018-12-15T11:22:48.819Z,18.17
2018-12-15T11:25:17.013Z,19.23
2018-12-15T11:27:45.254Z,24.43
2018-12-15T11:30:13.539Z,28.07
2018-12-15T11:32:41.724Z,23.40
2018-12-15T11:35:09.912Z,22.23
2018-12-15T11:37:38.111Z,15.53
2018-12-15T11:40:06.863Z,16.50
2018-12-15T11:42:35.040Z,21.30
2018-12-15T11:45:03.360Z,25.00
2018-12-15T11:47:31.558Z,17.50
2018-12-15T11:49:59.888Z,20.87
2018-12-15T11:52:28.304Z,22.37
2018-12-15T11:54:56.700Z,25.80
2018-12-15T11:57:24.893Z,24.03
2018-12-15T11:59:53.209Z,15.30
2018-12-15T12:02:21.396Z,23.57
2018-12-15T12:04:50.196Z,14.97
2018-12-15T12:07:18.383Z,21.77
2018-12-15T12:09:46.578Z,26.10
2018-12-15T12:12:14.870Z,21.80
2018-12-15T12:14:43.150Z,24.50
2018-12-15T12:17:11.446Z,22.63
2018-12-15T12:19:39.607Z,16.57
2018-12-15T12:22:08.043Z,31.57
2018-12-15T12:24:36.206Z,14.23
2018-12-15T12:27:04.488Z,16.23
2018-12-15T12:29:32.756Z,19.60
2018-12-15T12:32:01.016Z,18.07
2018-12-15T12:34:29.322Z,27.67
2018-12-15T12:36:57.504Z,22.47
2018-12-15T12:39:26.028Z,15.37
2018-12-15T12:41:54.381Z,14.13
2018-12-15T12:44:22.607Z,18.33
2018-12-15T12:46:50.768Z,18.97
2018-12-15T12:49:19.045Z,22.90
2018-12-15T12:51:47.844Z,15.33
2018-12-15T12:54:16.965Z,20.30
2018-12-15T12:56:45.190Z,16.43
2018-12-15T12:59:13.561Z,22.63
2018-12-15T13:01:42.060Z,20.43
2018-12-15T13:04:10.506Z,17.60
2018-12-15T13:06:39.120Z,13.93
2018-12-15T13:09:07.617Z,14.80
2018-12-15T13:11:35.878Z,13.80
2018-12-15T13:14:04.316Z,15.03
2018-12-15T13:16:32.580Z,15.80
2018-12-15T13:19:01.230Z,27.80
2018-12-15T13:21:29.496Z,19.77
2018-12-15T13:23:57.827Z,16.27
2018-12-15T13:26:26.278Z,14.63
2018-12-15T13:28:54.585Z,13.37
2018-12-15T13:31:23.235Z,13.00
2018-12-15T13:33:51.795Z,18.93
2018-12-15T13:36:20.322Z,14.40
2018-12-15T13:38:48.699Z,13.00
2018-12-15T13:41:16.932Z,12.73
2018-12-15T13:43:45.266Z,14.37
2018-12-15T13:46:13.685Z,15.67
2018-12-15T13:48:42.063Z,13.17
2018-12-15T13:51:10.570Z,16.43
2018-12-15T13:53:39.642Z,18.67
2018-12-15T13:56:07.908Z,12.73
2018-12-15T13:58:36.425Z,16.90
2018-12-15T14:01:04.837Z,19.67
2018-12-15T14:03:33.795Z,17.17
2018-12-15T14:06:02.216Z,17.73
2018-12-15T14:08:30.399Z,15.67
2018-12-15T14:10:58.597Z,17.67
2018-12-15T14:13:26.801Z,12.80
2018-12-15T14:15:54.972Z,12.53
2018-12-15T14:18:23.154Z,13.40
2018-12-15T14:20:51.565Z,14.20
2018-12-15T14:23:20.046Z,16.80
2018-12-15T14:25:48.240Z,15.57
2018-12-15T14:28:16.467Z,18.43
2018-12-15T14:30:44.646Z,17.30
2018-12-15T14:33:13.099Z,12.57
2018-12-15T14:35:41.311Z,13.83
2018-12-15T14:38:09.500Z,16.83
2018-12-15T14:40:38.013Z,20.73
2018-12-15T14:43:06.467Z,26.57
2018-12-15T14:45:34.696Z,21.03
2018-12-15T14:48:02.910Z,20.80
2018-12-15T14:50:31.132Z,27.57
2018-12-15T14:52:59.513Z,18.33
2018-12-15T14:55:27.796Z,15.73
2018-12-15T14:57:56.109Z,15.60
2018-12-15T15:00:24.371Z,17.53
2018-12-15T15:02:52.952Z,18.47
2018-12-15T15:05:21.242Z,17.50
2018-12-15T15:07:50.136Z,19.20
2018-12-15T15:10:18.548Z,17.33
2018-12-15T15:12:47.137Z,16.13
2018-12-15T15:15:15.414Z,24.50
2018-12-15T15:17:43.667Z,25.00
2018-12-15T15:20:12.188Z,26.17
2018-12-15T15:22:40.364Z,21.30
2018-12-15T15:25:08.630Z,25.07
2018-12-15T15:27:36.877Z,24.30
2018-12-15T15:30:06.697Z,22.87
2018-12-15T15:32:34.958Z,21.87
2018-12-15T15:35:03.406Z,23.60
2018-12-15T15:37:31.845Z,22.77
2018-12-15T15:40:00.118Z,24.20
2018-12-15T15:42:28.323Z,24.67
2018-12-15T15:44:56.540Z,23.03
2018-12-15T15:47:24.959Z,23.40
2018-12-15T15:49:53.239Z,25.17
2018-12-15T15:52:21.522Z,24.07
2018-12-15T15:54:49.937Z,21.60
2018-12-15T15:57:18.147Z,23.07
2018-12-15T15:59:46.643Z,23.53
2018-12-15T16:02:14.864Z,21.73
2018-12-15T16:04:43.032Z,23.83
2018-12-15T16:07:11.292Z,25.33
2018-12-15T16:09:44.880Z,23.70
2018-12-15T16:12:09.773Z,24.43
2018-12-15T16:14:37.975Z,30.53
2018-12-15T16:17:06.720Z,25.10
2018-12-15T16:19:34.916Z,26.47
2018-12-15T16:22:03.229Z,22.77
2018-12-15T16:24:31.455Z,29.93
2018-12-15T16:26:59.865Z,21.00
2018-12-15T16:29:28.282Z,27.50
2018-12-15T16:31:56.557Z,26.13
2018-12-15T16:34:25.115Z,61.40
2018-12-15T16:36:53.609Z,30.70
2018-12-15T16:39:22.241Z,28.17
2018-12-15T16:41:50.424Z,24.57
2018-12-15T16:44:18.951Z,27.97
2018-12-15T16:46:47.193Z,23.80
2018-12-15T16:49:15.475Z,23.37
2018-12-15T16:51:43.961Z,23.17
2018-12-15T16:54:12.705Z,24.80
2018-12-15T16:56:40.988Z,20.97
2018-12-15T16:59:09.177Z,24.87
2018-12-15T17:01:37.449Z,21.70
2018-12-15T17:04:06.129Z,20.83
2018-12-15T17:06:34.738Z,23.53
2018-12-15T17:09:04.016Z,21.73
2018-12-15T17:11:32.184Z,20.50
2018-12-15T17:14:00.696Z,23.60
2018-12-15T17:16:29.220Z,21.40
2018-12-15T17:18:57.897Z,24.37
2018-12-15T17:21:26.389Z,23.27
2018-12-15T17:23:54.800Z,21.10
2018-12-15T17:26:23.251Z,24.70
2018-12-15T17:28:51.481Z,19.33
2018-12-15T17:31:19.728Z,21.40
2018-12-15T17:33:47.929Z,22.27
2018-12-15T17:36:16.265Z,22.17
2018-12-15T17:38:44.442Z,21.20
2018-12-15T17:41:12.623Z,32.90
2018-12-15T17:43:41.139Z,31.67
2018-12-15T17:46:09.383Z,26.13
2018-12-15T17:48:37.545Z,36.70
2018-12-15T17:51:05.944Z,35.73
2018-12-15T17:53:34.520Z,28.73
2018-12-15T17:56:02.687Z,21.00
2018-12-15T17:58:30.861Z,21.07
2018-12-15T18:00:59.124Z,21.20
2018-12-15T18:03:27.383Z,20.80
2018-12-15T18:05:55.557Z,21.17
2018-12-15T18:08:23.719Z,19.43
2018-12-15T18:10:51.908Z,20.87
2018-12-15T18:13:20.092Z,20.70
2018-12-15T18:15:48.268Z,19.83
2018-12-15T18:18:16.477Z,18.47
2018-12-15T18:20:44.682Z,21.00
2018-12-15T18:23:12.852Z,15.73
2018-12-15T18:25:41.052Z,18.17
2018-12-15T18:28:09.308Z,15.87
2018-12-15T18:30:37.804Z,15.00
2018-12-15T18:33:06.507Z,14.00
2018-12-15T18:35:34.679Z,17.30
2018-12-15T18:38:02.848Z,15.30
2018-12-15T18:40:31.405Z,18.60
2018-12-15T18:42:59.588Z,14.87
2018-12-15T18:45:27.760Z,13.43
2018-12-15T18:47:55.942Z,18.33
2018-12-15T18:50:24.708Z,15.17
2018-12-15T18:52:53.179Z,13.03
2018-12-15T18:55:21.436Z,16.47
2018-12-15T18:57:50.565Z,13.07
2018-12-15T19:00:18.805Z,17.70
2018-12-15T19:02:46.999Z,14.90
2018-12-15T19:05:15.264Z,12.43
2018-12-15T19:07:43.519Z,14.10
2018-12-15T19:10:11.831Z,16.40
2018-12-15T19:12:40.507Z,13.83
2018-12-15T19:15:09.031Z,14.13
2018-12-15T19:17:37.572Z,23.10
2018-12-15T19:20:06.412Z,31.73
2018-12-15T19:22:34.554Z,18.97
2018-12-15T19:25:03.226Z,33.23
2018-12-15T19:27:31.372Z,15.23
2018-12-15T19:29:59.784Z,13.87
2018-12-15T19:32:27.935Z,13.33
2018-12-15T19:34:56.268Z,13.13
2018-12-15T19:37:24.712Z,17.40
2018-12-15T19:39:53.049Z,15.40
2018-12-15T19:42:21.217Z,20.03
2018-12-15T19:44:49.528Z,19.17
2018-12-15T19:47:17.784Z,17.67
2018-12-15T19:49:46.192Z,16.57
2018-12-15T19:52:14.366Z,18.90
2018-12-15T19:54:42.524Z,15.23
2018-12-15T19:57:10.963Z,22.87
2018-12-15T19:59:39.111Z,15.33
2018-12-15T20:02:07.484Z,18.37
2018-12-15T20:04:35.636Z,18.10
2018-12-15T20:07:04.213Z,17.27
2018-12-15T20:09:33.403Z,15.77
2018-12-15T20:12:01.547Z,17.90
2018-12-15T20:14:29.741Z,16.93
2018-12-15T20:16:57.935Z,21.33
2018-12-15T20:19:26.314Z,20.30
2018-12-15T20:21:54.492Z,24.97
2018-12-15T20:24:23.665Z,20.83
2018-12-15T20:26:51.984Z,23.33
2018-12-15T20:29:20.209Z,27.73
2018-12-15T20:31:48.500Z,21.50
2018-12-15T20:34:16.676Z,18.67
2018-12-15T20:36:45.128Z,20.10
2018-12-15T20:39:14.224Z,23.00
2018-12-15T20:41:42.501Z,20.27
2018-12-15T20:44:10.679Z,23.40
2018-12-15T20:46:39.483Z,24.30
2018-12-15T20:49:07.925Z,19.43
2018-12-15T20:51:42.571Z,19.93
2018-12-15T20:54:06.364Z,19.57
2018-12-15T20:56:34.711Z,20.17
2018-12-15T20:59:03.462Z,23.30
2018-12-15T21:01:31.831Z,22.77
2018-12-15T21:04:00.004Z,22.57
2018-12-15T21:06:28.177Z,27.20
2018-12-15T21:08:56.360Z,24.10
2018-12-15T21:11:25.239Z,25.00
2018-12-15T21:13:53.477Z,27.90
2018-12-15T21:16:21.677Z,25.47
2018-12-15T21:18:49.879Z,28.10
2018-12-15T21:21:18.214Z,28.83
2018-12-15T21:23:46.486Z,25.73
2018-12-15T21:26:14.760Z,30.17
2018-12-15T21:28:43.088Z,25.73
2018-12-15T21:31:11.367Z,27.23
2018-12-15T21:33:39.532Z,26.13
2018-12-15T21:36:07.704Z,28.00
2018-12-15T21:38:36.813Z,27.73
2018-12-15T21:41:05.136Z,30.43
2018-12-15T21:43:33.440Z,29.80
2018-12-15T21:46:01.629Z,27.57
2018-12-15T21:48:29.796Z,31.43
2018-12-15T21:50:58.256Z,29.93
2018-12-15T21:53:26.436Z,32.27
2018-12-15T21:55:54.638Z,34.80
2018-12-15T21:58:22.857Z,33.03
2018-12-15T22:00:51.043Z,31.73
2018-12-15T22:03:19.320Z,33.53
2018-12-15T22:05:47.608Z,37.80
2018-12-15T22:08:15.784Z,34.60
2018-12-15T22:10:43.963Z,29.40
2018-12-15T22:13:12.132Z,31.37
2018-12-15T22:15:40.288Z,35.00
2018-12-15T22:18:08.556Z,28.13
2018-12-15T22:20:36.992Z,29.43
2018-12-15T22:23:05.520Z,35.87
2018-12-15T22:25:33.671Z,29.13
2018-12-15T22:28:02.356Z,31.20
2018-12-15T22:30:30.679Z,32.97
2018-12-15T22:32:58.889Z,34.77
2018-12-15T22:35:27.132Z,34.73
2018-12-15T22:37:55.342Z,35.67
2018-12-15T22:40:23.711Z,37.37
2018-12-15T22:42:51.883Z,34.50
2018-12-15T22:45:20.083Z,38.20
2018-12-15T22:47:48.266Z,37.73
2018-12-15T22:50:16.508Z,30.40
2018-12-15T22:52:44.764Z,32.23
2018-12-15T22:55:13.042Z,32.93
2018-12-15T22:57:41.644Z,34.13
2018-12-15T23:00:11.319Z,31.80
2018-12-15T23:02:39.504Z,28.10
2018-12-15T23:05:07.848Z,31.43
2018-12-15T23:07:36.007Z,32.50
2018-12-15T23:10:05.480Z,31.67
2018-12-15T23:12:33.728Z,28.17
2018-12-15T23:15:01.897Z,27.37
2018-12-15T23:17:30.137Z,33.90
2018-12-15T23:19:58.331Z,31.50
2018-12-15T23:22:26.496Z,25.50
2018-12-15T23:24:54.748Z,30.03
2018-12-15T23:27:23.037Z,28.37
2018-12-15T23:29:51.225Z,29.47
2018-12-15T23:34:53.980Z,32.57
2018-12-15T23:37:22.235Z,29.57
2018-12-15T23:39:50.402Z,24.67
2018-12-15T23:42:18.740Z,25.70
2018-12-15T23:44:46.930Z,25.33
2018-12-15T23:47:15.084Z,29.60
2018-12-15T23:49:43.513Z,26.03
2018-12-15T23:52:11.675Z,28.40
2018-12-15T23:54:40.452Z,28.03
2018-12-15T23:57:08.617Z,31.20
2018-12-15T23:59:36.772Z,33.40
